Time;durP1;ratioP1;P1;durP2;ratioP2;P2;SDS_P1;SDS_P2;PMS_P1;PMS_P2;Temp;Humidity;BMP_temperature;BMP_pressure;BME280_temperature;BME280_humidity;BME280_pressure;Samples;Min_cycle;Max_cycle;Signal;HPM_P1;HPM_P2
2023/04/14 00:00:53;;;;;;;15.53;7.50;;;10.50;59.60;;;;;;5088884;28;20455;-86
2023/04/14 00:03:20;;;;;;;21.90;6.97;;;10.40;59.60;;;;;;5070457;28;20456;-85
2023/04/14 00:05:47;;;;;;;17.47;7.70;;;10.40;60.20;;;;;;5075036;28;20957;-85
2023/04/14 00:08:14;;;;;;;72.70;10.07;;;10.60;59.80;;;;;;5050640;28;20451;-86
2023/04/14 00:10:41;;;;;;;132.10;10.70;;;10.50;59.70;;;;;;5074309;28;20458;-85
2023/04/14 00:13:08;;;;;;;66.07;8.53;;;10.20;60.80;;;;;;5060382;27;20525;-85
2023/04/14 00:15:36;;;;;;;41.70;9.20;;;10.10;61.50;;;;;;5065995;28;20462;-85
2023/04/14 00:18:04;;;;;;;30.47;8.20;;;10.20;61.60;;;;;;5108790;27;20880;-87
2023/04/14 00:20:31;;;;;;;31.50;8.97;;;10.40;60.70;;;;;;5078968;28;20963;-87
2023/04/14 00:22:58;;;;;;;42.07;7.50;;;10.40;60.70;;;;;;5046676;27;20558;-86
2023/04/14 00:25:25;;;;;;;13.50;7.07;;;10.40;60.40;;;;;;5053007;28;21032;-85
2023/04/14 00:27:53;;;;;;;19.67;9.20;;;10.40;61.70;;;;;;5052119;27;20512;-84
2023/04/14 00:30:20;;;;;;;38.07;9.80;;;10.40;60.90;;;;;;5110661;27;20503;-88
2023/04/14 00:32:49;;;;;;;18.83;9.17;;;10.20;61.40;;;;;;5093318;28;20459;-86
2023/04/14 00:35:16;;;;;;;57.10;8.20;;;10.00;61.30;;;;;;5074078;28;20442;-84
2023/04/14 00:37:43;;;;;;;23.50;8.60;;;10.00;61.70;;;;;;5097978;28;20496;-85
2023/04/14 00:40:10;;;;;;;14.57;7.20;;;9.80;63.30;;;;;;5049509;27;21056;-86
2023/04/14 00:42:42;;;;;;;25.13;8.10;;;9.80;63.70;;;;;;5045575;28;20467;-85
2023/04/14 00:45:10;;;;;;;40.23;8.10;;;9.70;64.30;;;;;;5108929;27;20443;-84
2023/04/14 00:47:38;;;;;;;30.90;7.73;;;9.80;64.40;;;;;;5045698;28;20479;-86
2023/04/14 00:50:09;;;;;;;20.93;8.00;;;9.80;63.70;;;;;;5074741;28;20451;-86
2023/04/14 00:52:37;;;;;;;12.73;7.23;;;9.90;63.60;;;;;;5080379;28;20476;-85
2023/04/14 00:55:06;;;;;;;11.03;6.23;;;9.80;63.30;;;;;;5074401;28;21078;-85
2023/04/14 00:57:33;;;;;;;10.20;5.90;;;9.90;62.90;;;;;;5065709;28;20463;-87
2023/04/14 01:00:03;;;;;;;8.27;5.83;;;9.90;62.80;;;;;;5092370;28;20552;-88
2023/04/14 01:02:30;;;;;;;7.43;5.40;;;9.90;63.10;;;;;;5075695;28;20451;-84
2023/04/14 01:04:58;;;;;;;9.07;6.30;;;9.90;62.30;;;;;;5070142;28;20451;-86
2023/04/14 01:07:28;;;;;;;12.03;5.87;;;10.00;61.20;;;;;;5074844;28;20447;-86
2023/04/14 01:09:56;;;;;;;9.40;5.80;;;10.20;61.10;;;;;;5057967;28;20872;-86
2023/04/14 01:12:34;;;;;;;8.13;5.83;;;10.30;60.80;;;;;;5063601;28;20471;-85
2023/04/14 01:15:11;;;;;;;26.27;8.03;;;10.40;60.20;;;;;;5093433;28;20442;-85
2023/04/14 01:17:44;;;;;;;18.03;7.20;;;10.10;60.60;;;;;;5069172;28;20469;-85
2023/04/14 01:20:19;;;;;;;15.73;7.30;;;9.90;62.40;;;;;;5047905;28;20681;-85
2023/04/14 01:22:53;;;;;;;21.80;7.00;;;9.90;62.70;;;;;;5091994;28;21059;-86
2023/04/14 01:26:06;;;;;;;15.33;6.40;;;10.10;61.70;;;;;;5041687;28;20443;-85
2023/04/14 01:28:45;;;;;;;23.60;6.30;;;10.40;61.00;;;;;;5076894;28;20446;-87
2023/04/14 01:31:23;;;;;;;12.03;6.27;;;10.40;60.80;;;;;;5104514;27;20466;-87
2023/04/14 01:33:57;;;;;;;24.60;6.03;;;10.50;60.10;;;;;;5082580;28;20543;-87
2023/04/14 01:36:33;;;;;;;24.57;7.53;;;10.60;60.10;;;;;;5060799;28;20451;-86
2023/04/14 01:39:03;;;;;;;18.90;6.90;;;10.60;59.20;;;;;;5066513;28;20561;-85
2023/04/14 01:41:31;;;;;;;18.10;7.63;;;10.50;59.60;;;;;;5076907;28;20843;-85
2023/04/14 01:44:01;;;;;;;16.90;7.17;;;10.50;60.30;;;;;;5049333;28;20551;-87
2023/04/14 01:46:32;;;;;;;70.43;8.93;;;10.50;60.10;;;;;;5064404;28;20883;-89
2023/04/14 01:48:59;;;;;;;20.40;6.80;;;10.40;60.00;;;;;;5090130;28;20447;-86
2023/04/14 01:51:30;;;;;;;21.97;7.27;;;10.20;60.80;;;;;;5072319;28;20506;-85
2023/04/14 01:54:01;;;;;;;44.17;7.10;;;10.20;61.20;;;;;;5072714;28;20459;-86
2023/04/14 01:56:29;;;;;;;19.70;7.73;;;10.30;61.30;;;;;;5049753;28;20483;-87
2023/04/14 01:58:58;;;;;;;23.40;7.13;;;10.30;60.90;;;;;;5091213;28;20456;-87
2023/04/14 02:01:27;;;;;;;31.33;6.30;;;10.00;60.50;;;;;;5086878;28;20521;-85
2023/04/14 02:03:59;;;;;;;33.70;7.03;;;9.90;63.20;;;;;;5042121;28;20571;-84
2023/04/14 02:06:27;;;;;;;34.77;6.30;;;9.80;63.30;;;;;;5051124;28;21202;-85
2023/04/14 02:08:54;;;;;;;7.97;5.07;;;9.70;63.50;;;;;;5059477;28;20543;-87
2023/04/14 02:11:23;;;;;;;36.73;6.10;;;9.80;63.70;;;;;;5047336;28;21063;-86
2023/04/14 02:13:52;;;;;;;18.20;5.87;;;9.80;63.30;;;;;;5089956;28;20512;-86
2023/04/14 02:16:20;;;;;;;21.13;6.97;;;10.00;61.50;;;;;;5084206;28;20487;-84
2023/04/14 02:18:48;;;;;;;12.63;5.60;;;10.00;61.30;;;;;;5077915;28;20522;-85
2023/04/14 02:21:18;;;;;;;17.80;5.87;;;10.00;60.90;;;;;;5048459;28;20474;-86
2023/04/14 02:23:45;;;;;;;26.80;7.73;;;9.80;62.20;;;;;;5049599;28;20547;-86
2023/04/14 02:26:15;;;;;;;23.83;8.27;;;9.70;62.70;;;;;;5048950;28;22216;-88
2023/04/14 02:28:49;;;;;;;18.53;6.80;;;9.70;62.80;;;;;;5088091;28;20624;-88
2023/04/14 02:31:22;;;;;;;51.97;8.23;;;9.80;62.90;;;;;;5056297;28;20470;-85
2023/04/14 02:33:54;;;;;;;34.57;6.93;;;9.80;62.80;;;;;;5079678;28;20471;-86
2023/04/14 02:36:31;;;;;;;45.97;9.10;;;9.70;62.80;;;;;;5094029;28;20508;-86
2023/04/14 02:39:01;;;;;;;15.03;6.40;;;9.60;62.90;;;;;;5079212;28;20470;-85
2023/04/14 02:41:31;;;;;;;23.97;7.80;;;9.80;62.60;;;;;;5059863;28;20555;-86
2023/04/14 02:44:03;;;;;;;28.93;6.40;;;9.90;62.00;;;;;;5081364;28;20467;-86
2023/04/14 02:46:35;;;;;;;26.80;7.23;;;9.90;62.00;;;;;;5068193;28;20458;-84
2023/04/14 02:49:05;;;;;;;30.33;6.80;;;9.60;61.70;;;;;;5076383;28;20464;-85
2023/04/14 02:51:35;;;;;;;23.60;6.70;;;9.50;62.40;;;;;;5095767;28;20525;-85
2023/04/14 02:54:03;;;;;;;19.83;7.20;;;9.40;62.80;;;;;;5074895;28;20468;-85
2023/04/14 02:56:49;;;;;;;20.60;5.10;;;9.30;63.10;;;;;;5062632;28;20439;-84
2023/04/14 02:59:21;;;;;;;19.33;5.60;;;9.30;63.30;;;;;;5075182;28;20496;-87
2023/04/14 03:01:58;;;;;;;47.10;6.87;;;9.40;63.00;;;;;;5090987;28;20482;-84
2023/04/14 03:04:28;;;;;;;33.77;7.10;;;9.20;62.00;;;;;;5055930;28;20564;-86
2023/04/14 03:06:57;;;;;;;50.73;7.57;;;9.00;62.80;;;;;;5075439;27;20509;-85
2023/04/14 03:09:26;;;;;;;44.00;7.50;;;8.90;63.20;;;;;;5065182;28;20470;-85
2023/04/14 03:11:55;;;;;;;39.80;7.50;;;8.80;63.10;;;;;;5087241;28;20470;-87
2023/04/14 03:14:23;;;;;;;46.00;7.67;;;8.90;62.80;;;;;;5071507;28;20466;-85
2023/04/14 03:16:51;;;;;;;47.73;7.80;;;9.10;62.90;;;;;;5060775;28;20459;-87
2023/04/14 03:19:21;;;;;;;53.37;7.63;;;8.70;62.10;;;;;;5096253;28;20455;-87
2023/04/14 03:21:50;;;;;;;36.13;6.53;;;8.70;62.50;;;;;;5081629;28;20483;-86
2023/04/14 03:24:23;;;;;;;22.10;6.33;;;8.70;63.00;;;;;;5080648;28;20473;-85
2023/04/14 03:26:56;;;;;;;51.93;6.33;;;8.70;63.10;;;;;;5102845;27;20451;-86
2023/04/14 03:29:26;;;;;;;12.57;5.83;;;8.60;62.90;;;;;;5054133;28;20441;-86
2023/04/14 03:31:56;;;;;;;34.17;8.17;;;8.70;63.10;;;;;;5060174;28;20499;-85
2023/04/14 03:34:28;;;;;;;14.70;5.53;;;9.00;62.70;;;;;;5067653;28;21053;-83
2023/04/14 03:36:57;;;;;;;16.00;7.60;;;9.30;61.80;;;;;;5108818;27;20534;-86
2023/04/14 03:39:29;;;;;;;26.90;7.00;;;9.50;61.00;;;;;;5048842;28;21234;-87
2023/04/14 03:41:57;;;;;;;13.10;6.10;;;9.30;60.20;;;;;;5093882;27;21020;-85
2023/04/14 03:44:27;;;;;;;123.77;12.10;;;9.40;60.80;;;;;;5055683;28;20468;-85
2023/04/14 03:46:55;;;;;;;45.83;8.60;;;9.50;60.10;;;;;;5071800;28;20531;-88
2023/04/14 03:49:25;;;;;;;13.20;6.03;;;9.60;59.50;;;;;;5068863;28;20459;-85
2023/04/14 03:51:56;;;;;;;14.33;6.30;;;9.40;59.80;;;;;;5109559;27;20476;-85
2023/04/14 03:54:29;;;;;;;31.17;5.83;;;9.20;60.10;;;;;;5063958;28;20542;-86
2023/04/14 03:56:58;;;;;;;15.87;5.93;;;8.80;60.60;;;;;;5078779;28;20452;-87
2023/04/14 03:59:28;;;;;;;28.33;6.40;;;8.40;62.30;;;;;;5050999;28;20551;-85
2023/04/14 04:01:56;;;;;;;178.87;17.10;;;8.30;63.20;;;;;;5082043;28;20991;-86
2023/04/14 04:04:25;;;;;;;15.33;6.70;;;8.50;63.40;;;;;;5091811;28;20463;-85
2023/04/14 04:06:53;;;;;;;71.53;9.10;;;8.60;62.70;;;;;;5068338;28;20448;-86
2023/04/14 04:09:23;;;;;;;15.60;5.53;;;8.90;62.60;;;;;;5047519;28;20450;-85
2023/04/14 04:11:52;;;;;;;43.30;6.83;;;8.90;62.00;;;;;;5078863;28;20475;-84
2023/04/14 04:14:22;;;;;;;39.73;6.40;;;9.00;62.40;;;;;;5068210;28;20482;-84
2023/04/14 04:16:51;;;;;;;6.97;4.20;;;8.80;61.30;;;;;;5063997;28;20450;-84
2023/04/14 04:19:20;;;;;;;9.10;5.40;;;8.90;61.30;;;;;;5077506;27;20974;-87
2023/04/14 04:21:49;;;;;;;45.27;6.10;;;8.80;61.50;;;;;;5094261;27;20468;-85
2023/04/14 04:24:19;;;;;;;14.57;5.20;;;8.60;61.10;;;;;;5049352;27;22630;-85
2023/04/14 04:26:47;;;;;;;5.47;3.97;;;8.50;61.80;;;;;;5054868;28;20448;-85
2023/04/14 04:29:16;;;;;;;10.67;5.23;;;8.40;61.30;;;;;;5057147;28;20462;-84
2023/04/14 04:31:43;;;;;;;8.80;3.60;;;8.20;61.60;;;;;;5105743;27;20521;-86
2023/04/14 04:34:11;;;;;;;20.90;4.13;;;8.20;62.20;;;;;;5070002;27;20475;-86
2023/04/14 04:36:40;;;;;;;26.63;10.63;;;8.20;61.70;;;;;;5069555;28;20444;-84
2023/04/14 04:39:07;;;;;;;36.93;5.80;;;8.20;62.00;;;;;;5085900;27;21030;-86
2023/04/14 04:41:39;;;;;;;37.50;5.97;;;8.10;62.30;;;;;;5076586;28;20516;-86
2023/04/14 04:44:06;;;;;;;37.60;6.40;;;8.30;62.00;;;;;;5053436;28;20485;-86
2023/04/14 04:46:55;;;;;;;20.23;5.33;;;8.30;61.60;;;;;;5090667;28;20455;-86
2023/04/14 04:49:28;;;;;;;27.77;11.27;;;8.20;62.00;;;;;;5089174;28;20532;-86
2023/04/14 04:52:01;;;;;;;23.60;5.83;;;8.40;61.30;;;;;;5049904;28;20486;-87
2023/04/14 04:54:28;;;;;;;9.63;4.90;;;8.40;61.70;;;;;;5069889;28;21602;-86
2023/04/14 04:56:56;;;;;;;25.93;5.60;;;8.50;61.70;;;;;;5051974;28;20455;-87
2023/04/14 04:59:23;;;;;;;78.73;6.80;;;8.60;61.20;;;;;;5070815;27;20871;-86
2023/04/14 05:01:50;;;;;;;37.93;6.10;;;8.40;60.90;;;;;;5088717;28;20471;-86
2023/04/14 05:04:18;;;;;;;105.53;8.23;;;8.30;62.50;;;;;;5038460;28;20481;-85
2023/04/14 05:06:45;;;;;;;27.03;5.77;;;8.20;62.90;;;;;;5045971;28;20474;-86
2023/04/14 05:09:13;;;;;;;75.73;8.40;;;8.40;62.30;;;;;;5076248;27;20465;-86
2023/04/14 05:11:40;;;;;;;29.07;7.63;;;8.70;61.60;;;;;;5072213;28;20459;-85
2023/04/14 05:14:07;;;;;;;27.33;6.37;;;8.50;62.30;;;;;;5100322;27;20455;-85
2023/04/14 05:16:35;;;;;;;115.63;10.03;;;8.50;62.50;;;;;;5106222;27;20854;-85
2023/04/14 05:19:02;;;;;;;118.57;9.77;;;8.40;62.10;;;;;;5044204;28;21216;-86
2023/04/14 05:21:31;;;;;;;23.57;6.10;;;8.50;62.50;;;;;;5060544;28;20461;-87
2023/04/14 05:23:59;;;;;;;65.77;10.73;;;8.30;62.90;;;;;;5088883;27;20479;-87
2023/04/14 05:26:26;;;;;;;123.57;13.10;;;8.40;62.70;;;;;;5070541;28;20441;-85
2023/04/14 05:28:53;;;;;;;34.20;6.30;;;8.20;62.70;;;;;;5089419;28;20444;-86
2023/04/14 05:31:20;;;;;;;47.27;6.70;;;8.20;63.50;;;;;;5053639;28;20472;-85
2023/04/14 05:33:47;;;;;;;31.10;5.13;;;8.00;63.60;;;;;;5080478;28;21007;-86
2023/04/14 05:36:14;;;;;;;18.57;6.20;;;8.00;64.10;;;;;;5067672;28;20448;-85
2023/04/14 05:38:42;;;;;;;31.33;7.13;;;8.00;64.30;;;;;;5088175;28;20460;-85
2023/04/14 05:41:10;;;;;;;39.83;6.03;;;8.10;64.40;;;;;;5087426;28;20507;-85
2023/04/14 05:43:37;;;;;;;18.53;8.07;;;8.40;64.10;;;;;;5090828;28;20464;-86
2023/04/14 05:46:05;;;;;;;32.40;6.10;;;8.60;63.60;;;;;;5043630;28;20527;-86
2023/04/14 05:48:32;;;;;;;27.30;6.50;;;8.40;63.70;;;;;;5086636;28;20550;-86
2023/04/14 05:50:59;;;;;;;30.60;6.23;;;8.30;64.70;;;;;;5053980;28;20546;-86
2023/04/14 05:53:26;;;;;;;123.47;8.17;;;8.40;64.60;;;;;;5073336;28;20455;-86
2023/04/14 05:55:55;;;;;;;33.43;5.73;;;8.60;64.60;;;;;;5071631;28;21164;-86
2023/04/14 05:58:25;;;;;;;42.17;6.80;;;8.40;64.60;;;;;;5086967;28;20478;-85
2023/04/14 06:00:52;;;;;;;80.50;6.77;;;8.40;65.30;;;;;;5064780;28;21075;-85
2023/04/14 06:03:19;;;;;;;33.77;6.00;;;8.70;64.40;;;;;;5090882;27;20814;-86
2023/04/14 06:05:49;;;;;;;26.97;5.67;;;8.90;63.50;;;;;;5098216;28;20439;-87
2023/04/14 06:08:16;;;;;;;65.17;6.00;;;8.90;63.60;;;;;;5081216;28;20452;-87
2023/04/14 06:10:43;;;;;;;28.07;5.97;;;8.80;63.90;;;;;;5051825;28;21099;-86
2023/04/14 06:13:12;;;;;;;20.13;5.90;;;8.70;63.90;;;;;;5096985;27;20450;-86
2023/04/14 06:15:39;;;;;;;49.33;5.50;;;8.70;64.70;;;;;;5100847;28;20449;-86
2023/04/14 06:18:06;;;;;;;33.97;6.30;;;9.00;64.30;;;;;;5093620;27;21130;-86
2023/04/14 06:20:35;;;;;;;55.43;7.30;;;8.80;63.90;;;;;;5078244;28;20452;-86
2023/04/14 06:23:02;;;;;;;26.23;6.43;;;8.90;64.90;;;;;;5087647;28;20458;-85
2023/04/14 06:25:29;;;;;;;12.10;5.93;;;8.90;63.90;;;;;;5061977;28;20475;-86
2023/04/14 06:27:56;;;;;;;18.53;6.13;;;8.60;64.50;;;;;;5055433;28;20545;-85
2023/04/14 06:30:27;;;;;;;27.07;7.50;;;8.70;64.90;;;;;;5074691;27;20467;-86
2023/04/14 06:32:54;;;;;;;18.90;7.00;;;8.80;65.20;;;;;;5078501;28;20468;-86
2023/04/14 06:35:22;;;;;;;51.27;6.90;;;8.70;65.20;;;;;;5093849;27;20435;-86
2023/04/14 06:37:50;;;;;;;48.57;6.80;;;9.00;65.40;;;;;;5053140;28;20450;-86
2023/04/14 06:40:17;;;;;;;14.40;6.33;;;9.10;64.40;;;;;;5091365;28;20497;-86
2023/04/14 06:42:44;;;;;;;107.80;11.83;;;9.20;64.30;;;;;;5086598;28;20469;-86
2023/04/14 06:45:12;;;;;;;32.10;11.00;;;9.40;64.20;;;;;;5072704;28;20475;-85
2023/04/14 06:47:40;;;;;;;20.30;6.53;;;9.60;63.90;;;;;;5084264;28;21149;-85
2023/04/14 06:50:08;;;;;;;23.20;6.50;;;9.50;63.70;;;;;;5090653;27;20453;-86
2023/04/14 06:52:35;;;;;;;27.10;7.90;;;9.20;64.40;;;;;;5057110;28;20582;-85
2023/04/14 06:55:03;;;;;;;12.00;7.40;;;9.10;64.90;;;;;;5089258;27;20818;-86
2023/04/14 06:57:30;;;;;;;21.40;9.40;;;9.00;65.70;;;;;;5072793;28;20451;-86
2023/04/14 06:59:57;;;;;;;20.20;7.37;;;9.10;65.90;;;;;;5057759;28;20460;-86
2023/04/14 07:02:24;;;;;;;11.30;6.50;;;9.40;65.60;;;;;;5089731;27;20467;-85
2023/04/14 07:04:52;;;;;;;14.90;7.67;;;9.70;64.60;;;;;;5091039;27;20557;-86
2023/04/14 07:07:19;;;;;;;17.73;7.00;;;9.90;63.50;;;;;;5076724;28;20446;-86
2023/04/14 07:09:46;;;;;;;53.63;8.73;;;10.00;62.60;;;;;;5094099;27;20959;-86
2023/04/14 07:12:13;;;;;;;14.30;7.20;;;9.80;63.30;;;;;;5089647;28;20523;-85
2023/04/14 07:14:41;;;;;;;13.60;7.30;;;9.90;63.60;;;;;;5056257;28;20436;-87
2023/04/14 07:17:08;;;;;;;13.77;8.17;;;9.90;63.90;;;;;;5088437;28;20443;-85
2023/04/14 07:19:36;;;;;;;14.27;7.60;;;10.10;62.40;;;;;;5091556;27;20435;-85
2023/04/14 07:22:06;;;;;;;11.30;7.17;;;10.30;61.70;;;;;;5089227;27;20965;-84
2023/04/14 07:24:33;;;;;;;21.03;8.30;;;10.10;62.10;;;;;;5072286;28;20466;-85
2023/04/14 07:27:00;;;;;;;34.37;8.27;;;9.80;63.30;;;;;;5102610;27;21076;-85
2023/04/14 07:29:28;;;;;;;10.10;7.53;;;9.50;64.40;;;;;;5074347;28;20475;-85
2023/04/14 07:31:55;;;;;;;15.87;9.20;;;9.50;65.20;;;;;;5082513;28;20478;-84
2023/04/14 07:34:22;;;;;;;10.67;7.40;;;9.50;65.60;;;;;;5091109;28;20530;-84
2023/04/14 07:36:49;;;;;;;13.63;7.03;;;9.50;65.30;;;;;;5090831;28;20451;-85
2023/04/14 07:39:18;;;;;;;13.00;6.47;;;9.40;65.60;;;;;;5080237;28;20443;-84
2023/04/14 07:41:45;;;;;;;10.90;6.90;;;9.50;65.60;;;;;;5075334;28;20502;-84
2023/04/14 07:44:12;;;;;;;12.57;7.20;;;9.90;65.40;;;;;;5071439;27;20475;-85
2023/04/14 07:46:39;;;;;;;14.37;7.20;;;10.10;63.20;;;;;;5071238;28;20536;-84
2023/04/14 07:49:06;;;;;;;10.57;7.87;;;10.10;63.40;;;;;;5088382;28;20459;-84
2023/04/14 07:51:33;;;;;;;12.07;7.03;;;10.20;63.00;;;;;;5104390;27;20470;-84
2023/04/14 07:54:01;;;;;;;12.80;7.00;;;10.20;63.20;;;;;;5090198;28;20449;-85
2023/04/14 07:56:29;;;;;;;15.13;7.20;;;10.30;63.80;;;;;;5075428;28;20440;-84
2023/04/14 07:58:56;;;;;;;12.83;8.03;;;10.30;64.80;;;;;;5092002;27;20508;-84
2023/04/14 08:01:23;;;;;;;13.50;8.67;;;10.20;64.70;;;;;;5062676;28;20490;-84
2023/04/14 08:03:50;;;;;;;12.90;7.20;;;10.40;64.20;;;;;;5072400;28;20472;-84
2023/04/14 08:06:17;;;;;;;13.13;6.97;;;10.40;64.40;;;;;;5073796;27;20497;-84
2023/04/14 08:08:44;;;;;;;6.93;4.90;;;10.70;64.10;;;;;;5106620;27;21120;-85
2023/04/14 08:11:11;;;;;;;9.03;4.83;;;10.70;63.70;;;;;;5063226;28;20553;-85
2023/04/14 08:13:39;;;;;;;10.90;7.47;;;10.90;64.00;;;;;;5073786;28;20635;-86
2023/04/14 08:16:08;;;;;;;16.47;12.00;;;11.10;63.60;;;;;;5067799;28;20439;-86
2023/04/14 08:18:35;;;;;;;11.07;6.63;;;11.40;62.70;;;;;;5104456;27;21117;-86
2023/04/14 08:21:02;;;;;;;9.20;6.33;;;11.50;61.80;;;;;;5080193;28;20478;-85
2023/04/14 08:23:29;;;;;;;8.87;5.50;;;11.60;61.90;;;;;;5089618;27;20444;-85
2023/04/14 08:25:56;;;;;;;7.20;5.60;;;11.90;61.60;;;;;;5080106;28;20903;-84
2023/04/14 08:28:23;;;;;;;9.60;5.63;;;12.20;60.70;;;;;;5078757;27;20451;-85
2023/04/14 08:30:51;;;;;;;6.80;5.53;;;12.20;60.50;;;;;;5071465;28;20473;-85
2023/04/14 08:33:18;;;;;;;8.20;5.27;;;12.30;61.10;;;;;;5086254;28;20994;-85
2023/04/14 08:35:45;;;;;;;7.40;5.37;;;12.60;60.50;;;;;;5055500;28;20456;-86
2023/04/14 08:38:13;;;;;;;9.47;6.00;;;12.70;59.50;;;;;;5077804;28;20485;-86
2023/04/14 08:40:42;;;;;;;7.07;5.73;;;12.80;59.60;;;;;;5055489;28;20508;-85
2023/04/14 08:43:10;;;;;;;6.80;5.30;;;12.70;59.30;;;;;;5061773;28;20850;-85
2023/04/14 08:45:37;;;;;;;7.83;6.00;;;12.80;59.60;;;;;;5089313;28;21022;-85
2023/04/14 08:48:06;;;;;;;7.13;5.90;;;13.00;59.50;;;;;;5086901;27;20455;-85
2023/04/14 08:50:37;;;;;;;7.30;5.37;;;13.30;59.10;;;;;;5086391;28;20515;-86
2023/04/14 08:53:08;;;;;;;7.37;5.37;;;13.50;58.60;;;;;;5044859;28;21044;-86
2023/04/14 08:55:39;;;;;;;10.20;5.27;;;13.50;58.50;;;;;;5104918;27;20431;-85
2023/04/14 08:58:09;;;;;;;10.43;5.40;;;13.30;59.10;;;;;;5062685;28;20451;-86
2023/04/14 09:00:37;;;;;;;5.00;3.87;;;13.50;58.50;;;;;;5062210;28;20478;-86
2023/04/14 09:03:09;;;;;;;4.93;3.80;;;13.50;57.90;;;;;;5085920;28;20456;-86
2023/04/14 09:05:36;;;;;;;7.40;4.90;;;13.80;57.90;;;;;;5060801;28;20471;-85
2023/04/14 09:08:04;;;;;;;6.60;4.20;;;13.80;57.40;;;;;;5086159;28;20509;-85
2023/04/14 09:10:32;;;;;;;9.67;5.23;;;14.10;57.30;;;;;;5090264;27;20452;-85
2023/04/14 09:13:00;;;;;;;6.40;4.43;;;14.20;57.30;;;;;;5060876;28;20467;-86
2023/04/14 09:15:27;;;;;;;6.80;4.50;;;14.50;57.40;;;;;;5047413;28;20439;-88
2023/04/14 09:17:55;;;;;;;6.87;4.13;;;14.70;55.70;;;;;;5065668;28;20452;-85
2023/04/14 09:20:25;;;;;;;6.03;4.00;;;14.90;56.20;;;;;;5074499;28;20531;-87
2023/04/14 09:22:53;;;;;;;6.33;4.23;;;15.20;54.80;;;;;;5050745;28;20460;-86
2023/04/14 09:25:22;;;;;;;9.07;3.53;;;15.20;51.80;;;;;;5071037;28;20472;-87
2023/04/14 09:27:49;;;;;;;5.90;4.00;;;15.30;52.90;;;;;;5071823;28;20439;-86
2023/04/14 09:30:17;;;;;;;6.13;3.10;;;15.60;51.80;;;;;;5062906;28;20452;-86
2023/04/14 09:32:44;;;;;;;12.23;5.70;;;15.70;52.60;;;;;;5048305;28;20501;-88
2023/04/14 09:35:13;;;;;;;4.90;3.80;;;16.00;52.50;;;;;;5070751;28;20493;-86
2023/04/14 09:37:47;;;;;;;8.93;5.70;;;16.30;52.50;;;;;;5074675;28;20842;-86
2023/04/14 09:40:27;;;;;;;7.43;4.00;;;16.60;51.00;;;;;;5073722;28;20456;-86
2023/04/14 09:42:56;;;;;;;4.20;3.40;;;16.90;51.10;;;;;;5109329;27;20521;-87
2023/04/14 09:45:39;;;;;;;5.70;4.10;;;17.30;51.00;;;;;;5046974;28;20471;-86
2023/04/14 09:48:08;;;;;;;4.93;3.87;;;17.30;49.80;;;;;;5047659;28;20455;-85
2023/04/14 09:50:56;;;;;;;5.10;3.63;;;17.10;47.20;;;;;;5062540;28;20459;-85
2023/04/14 09:53:29;;;;;;;5.17;3.60;;;17.00;47.20;;;;;;5082851;28;20471;-85
2023/04/14 09:55:58;;;;;;;5.73;3.90;;;17.00;41.80;;;;;;5065813;28;20999;-86
2023/04/14 09:58:30;;;;;;;5.27;3.70;;;17.00;45.10;;;;;;5089080;28;21312;-86
2023/04/14 10:00:58;;;;;;;6.43;3.60;;;17.20;46.70;;;;;;5082640;28;20456;-86
2023/04/14 10:03:33;;;;;;;3.40;3.00;;;17.40;45.40;;;;;;5058579;28;20504;-86
2023/04/14 10:06:03;;;;;;;7.87;4.13;;;17.70;43.70;;;;;;5080625;28;20481;-85
2023/04/14 10:08:43;;;;;;;4.03;3.40;;;17.70;41.40;;;;;;5090434;28;20447;-85
2023/04/14 10:11:18;;;;;;;4.60;3.57;;;17.80;41.70;;;;;;5085052;28;20459;-85
2023/04/14 10:13:46;;;;;;;2.90;2.70;;;17.70;41.70;;;;;;5071773;28;20466;-85
2023/04/14 10:16:13;;;;;;;3.37;2.90;;;17.90;42.60;;;;;;5049907;28;21039;-85
2023/04/14 10:18:40;;;;;;;5.03;2.80;;;18.00;41.70;;;;;;5088798;28;20940;-84
2023/04/14 10:21:08;;;;;;;4.13;3.00;;;18.00;42.50;;;;;;5061330;28;20464;-85
2023/04/14 10:23:38;;;;;;;2.87;2.53;;;17.90;40.00;;;;;;5089980;28;20471;-86
2023/04/14 10:26:07;;;;;;;5.67;3.27;;;17.60;42.60;;;;;;5087373;28;20482;-85
2023/04/14 10:28:35;;;;;;;8.67;3.53;;;17.40;43.00;;;;;;5101412;27;20505;-85
2023/04/14 10:31:05;;;;;;;6.40;3.63;;;17.10;44.60;;;;;;5070030;28;20472;-85
2023/04/14 10:33:32;;;;;;;3.13;2.83;;;16.80;42.20;;;;;;5086266;28;20446;-85
2023/04/14 10:36:00;;;;;;;4.10;2.30;;;16.40;42.20;;;;;;5077192;28;20440;-84
2023/04/14 10:38:38;;;;;;;6.73;2.07;;;16.20;43.40;;;;;;5082624;28;20456;-84
2023/04/14 10:41:07;;;;;;;2.80;2.60;;;16.30;44.70;;;;;;5099958;27;20475;-84
2023/04/14 10:43:36;;;;;;;3.10;2.90;;;16.40;44.40;;;;;;5086197;28;20462;-84
2023/04/14 10:46:04;;;;;;;3.53;2.70;;;16.50;45.10;;;;;;5065793;28;20474;-85
2023/04/14 10:48:33;;;;;;;2.50;2.30;;;16.50;42.10;;;;;;5064479;28;20455;-85
2023/04/14 10:51:02;;;;;;;6.33;2.57;;;16.60;45.10;;;;;;5088746;27;20474;-85
2023/04/14 10:53:36;;;;;;;2.80;2.60;;;16.90;45.20;;;;;;5089740;27;20813;-84
2023/04/14 10:56:04;;;;;;;5.37;2.30;;;17.10;45.00;;;;;;5077619;28;20454;-85
2023/04/14 10:58:36;;;;;;;4.30;2.90;;;17.10;44.60;;;;;;5086591;28;20515;-85
2023/04/14 11:01:23;;;;;;;3.63;3.00;;;17.30;44.60;;;;;;5091273;27;20491;-85
2023/04/14 11:03:50;;;;;;;5.10;3.10;;;17.50;42.90;;;;;;5072620;28;20448;-85
2023/04/14 11:06:51;;;;;;;7.93;2.97;;;17.40;44.10;;;;;;5088060;28;20477;-84
2023/04/14 11:09:26;;;;;;;3.20;2.90;;;17.30;42.70;;;;;;5088545;28;21410;-85
2023/04/14 11:11:56;;;;;;;3.83;2.87;;;17.00;42.50;;;;;;5090168;27;20474;-85
2023/04/14 11:14:30;;;;;;;6.40;2.60;;;17.00;42.90;;;;;;5086536;27;20451;-86
2023/04/14 11:17:02;;;;;;;6.27;3.63;;;16.80;43.60;;;;;;5070083;28;20442;-84
2023/04/14 11:19:29;;;;;;;3.20;2.90;;;17.10;43.70;;;;;;5087022;28;20439;-85
2023/04/14 11:21:56;;;;;;;3.70;2.80;;;17.10;44.00;;;;;;5088602;28;20595;-86
2023/04/14 11:24:24;;;;;;;2.47;2.27;;;17.10;42.70;;;;;;5088875;28;20466;-85
2023/04/14 11:26:54;;;;;;;2.93;2.00;;;17.10;42.90;;;;;;5071472;28;20471;-86
2023/04/14 11:29:21;;;;;;;7.03;2.50;;;17.20;42.20;;;;;;5072233;28;20566;-86
2023/04/14 11:32:01;;;;;;;4.87;2.90;;;17.50;43.40;;;;;;5064813;28;20495;-86
2023/04/14 11:34:28;;;;;;;4.80;2.37;;;17.90;43.60;;;;;;5078766;28;20563;-86
2023/04/14 11:36:56;;;;;;;6.17;3.00;;;18.10;40.80;;;;;;5074808;28;20455;-86
2023/04/14 11:39:23;;;;;;;6.10;2.73;;;17.70;42.90;;;;;;5074704;28;20484;-85
2023/04/14 11:41:51;;;;;;;3.37;2.70;;;17.30;44.40;;;;;;5089259;27;20788;-86
2023/04/14 11:44:19;;;;;;;5.20;2.73;;;17.00;45.30;;;;;;5075340;28;20459;-86
2023/04/14 11:46:46;;;;;;;5.47;2.70;;;17.20;44.20;;;;;;5071129;28;20471;-86
2023/04/14 11:49:15;;;;;;;5.70;2.80;;;17.40;43.10;;;;;;5085598;28;20447;-86
2023/04/14 11:51:42;;;;;;;4.20;3.00;;;17.30;42.90;;;;;;5069928;28;20475;-85
2023/04/14 11:54:11;;;;;;;4.50;2.47;;;17.40;43.10;;;;;;5090799;28;20472;-85
2023/04/14 11:56:39;;;;;;;3.50;2.87;;;18.00;43.30;;;;;;5082782;28;20456;-84
2023/04/14 11:59:06;;;;;;;4.03;2.90;;;18.70;42.90;;;;;;5073878;28;20459;-85
2023/04/14 12:01:33;;;;;;;2.77;2.50;;;18.80;38.00;;;;;;5088505;27;20630;-86
2023/04/14 12:04:00;;;;;;;4.47;2.80;;;18.80;39.40;;;;;;5080100;28;21067;-85
2023/04/14 12:06:28;;;;;;;6.60;2.23;;;18.80;38.20;;;;;;5088480;27;20474;-86
2023/04/14 12:09:02;;;;;;;2.27;1.73;;;18.80;40.00;;;;;;5088245;28;20558;-84
2023/04/14 12:11:29;;;;;;;2.60;2.40;;;18.60;37.90;;;;;;5086855;27;20471;-85
2023/04/14 12:13:57;;;;;;;5.40;2.10;;;18.40;38.10;;;;;;5053433;28;20468;-85
2023/04/14 12:16:25;;;;;;;4.70;2.30;;;18.20;38.80;;;;;;5088591;28;20443;-85
2023/04/14 12:18:52;;;;;;;2.43;2.27;;;17.90;39.00;;;;;;5089671;27;20447;-85
2023/04/14 12:21:20;;;;;;;2.53;2.03;;;18.00;39.80;;;;;;5089394;28;20517;-85
2023/04/14 12:23:48;;;;;;;2.33;2.03;;;18.10;38.50;;;;;;5064180;28;20579;-85
2023/04/14 12:26:16;;;;;;;4.53;2.43;;;18.10;39.30;;;;;;5082479;28;20522;-85
2023/04/14 12:28:43;;;;;;;3.87;2.60;;;18.00;38.40;;;;;;5076218;28;20902;-86
2023/04/14 12:31:11;;;;;;;3.63;2.40;;;17.90;40.20;;;;;;5076130;28;20560;-85
2023/04/14 12:33:38;;;;;;;2.20;2.00;;;18.20;39.10;;;;;;5074848;27;20919;-86
2023/04/14 12:36:06;;;;;;;3.00;2.30;;;18.30;38.50;;;;;;5061108;28;20448;-85
2023/04/14 12:38:34;;;;;;;3.20;1.97;;;18.40;39.40;;;;;;5054568;28;20956;-84
2023/04/14 12:41:03;;;;;;;5.10;2.50;;;18.40;38.60;;;;;;5075208;28;20957;-85
2023/04/14 12:43:31;;;;;;;4.03;2.10;;;18.60;37.60;;;;;;5090242;27;20449;-85
2023/04/14 12:46:01;;;;;;;3.97;2.50;;;18.80;37.40;;;;;;5074845;28;20495;-84
2023/04/14 12:48:43;;;;;;;6.27;2.50;;;18.90;37.40;;;;;;5073345;28;20458;-84
2023/04/14 12:51:12;;;;;;;2.97;2.77;;;19.00;41.30;;;;;;5057206;28;20559;-84
2023/04/14 12:53:40;;;;;;;2.43;1.80;;;19.10;38.90;;;;;;5079571;28;20444;-84
2023/04/14 12:56:10;;;;;;;7.00;2.50;;;19.10;39.90;;;;;;5092817;28;20462;-83